Glovis Prime — D7AC — position and weather

sailwx.info

Track history (hours):
 
Tides and Currents Weather Stations Pressure Air Temp Water Temp Dewpoint Dewpoint Depression Visibility Wind Speed Wind Dir Waves Ship Positions

Glovis Prime

Last reported at 2017-Dec-01 16:39 UTC. Time now 2017-Dec-13 22:35 UTC.
Position N 33°57' E 138°06'.
Warning: this ship's position is 12 days out of date.

Length 184 m; draft 8.1 m.

Type: Cargo ship. MMSI: 440062000.

Date/timePositionNaut miles runAvg speedWind from/ knotsBaromVisibWave heightAir tempDewpointWater temp
2017-Dec-01 16:39N 33°57' E 138°06'614.9
2017-Dec-01 16:15N 34°00' E 138°12'615.0
2017-Dec-01 15:50N 34°04' E 138°18'614.7
2017-Dec-01 15:25N 34°08' E 138°24'1214.5
2017-Dec-01 14:37N 34°15' E 138°34'213.9
2017-Dec-01 14:30N 34°16' E 138°36'713.8
2017-Dec-01 14:00N 34°20' E 138°43'813.3
2017-Dec-01 13:26N 34°24' E 138°51'613.3
2017-Dec-01 13:00N 34°28' E 138°56'713.4
2017-Dec-01 12:30N 34°32' E 139°02'713.7
2017-Dec-01 12:00N 34°37' E 139°08'713.4
2017-Dec-01 11:27N 34°43' E 139°13'614.2
2017-Dec-01 11:00N 34°48' E 139°18'814.4
2017-Dec-01 10:29N 34°54' E 139°23'714.1
2017-Dec-01 10:01N 34°58' E 139°29'714.5
2017-Dec-01 09:30N 35°03' E 139°36'815.3
2017-Dec-01 09:00N 35°08' E 139°44'612.0
2017-Dec-01 08:31N 35°13' E 139°46'713.0
2017-Dec-01 08:00N 35°19' E 139°43'612.4
2017-Dec-01 07:30N 35°25' E 139°44'5 9.9
2017-Dec-01 07:00N 35°30' E 139°46'0 0.2
2017-Dec-01 06:28N 35°30' E 139°47'0 0.0
2017-Dec-01 05:58N 35°30' E 139°47'0 0.0
2017-Dec-01 05:28N 35°30' E 139°47'0 0.0
2017-Dec-01 04:58N 35°30' E 139°47'0 0.0
2017-Dec-01 04:28N 35°30' E 139°47'0 0.0
2017-Dec-01 03:58N 35°30' E 139°47'0 0.0
2017-Dec-01 03:28N 35°30' E 139°47'0 0.0
2017-Dec-01 02:58N 35°30' E 139°47'0 0.0
2017-Dec-01 02:28N 35°30' E 139°47'0 0.0
2017-Dec-01 01:58N 35°30' E 139°47'0 0.0
2017-Dec-01 01:28N 35°30' E 139°47'0 0.0
2017-Dec-01 00:58N 35°30' E 139°47'0 0.0
2017-Dec-01 00:25N 35°30' E 139°47'0 0.0
2017-Nov-30 23:58N 35°30' E 139°47'0 0.0
2017-Nov-30 23:28N 35°30' E 139°47'0 0.0
2017-Nov-30 22:58N 35°30' E 139°47'1 1.2
2017-Nov-30 22:30N 35°30' E 139°47'5 9.2
2017-Nov-30 22:00N 35°25' E 139°47'612.7
2017-Nov-30 21:31N 35°19' E 139°44'611.8
2017-Nov-30 21:00N 35°14' E 139°47'510.8
2017-Nov-30 20:30N 35°08' E 139°46'611.4
2017-Nov-30 20:00N 35°03' E 139°43'713.9
2017-Nov-30 19:31N 35°02' E 139°35'611.7
2017-Nov-30 19:01N 34°59' E 139°29'816.5
2017-Nov-30 18:30N 34°53' E 139°23'815.3
2017-Nov-30 18:00N 34°47' E 139°16'915.9
2017-Nov-30 17:27N 34°40' E 139°10'815.8
2017-Nov-30 16:59N 34°34' E 139°04'715.1
2017-Nov-30 16:31N 34°30' E 138°58'915.7
2017-Nov-30 15:57N 34°27' E 138°47'715.6
2017-Nov-30 15:29N 34°25' E 138°39'815.1
2017-Nov-30 14:57N 34°23' E 138°29'715.1
2017-Nov-30 14:27N 34°22' E 138°21'715.0
2017-Nov-30 14:00N 34°21' E 138°13'815.0
2017-Nov-30 13:29N 34°20' E 138°03'714.6
2017-Nov-30 12:59N 34°19' E 137°54'5513.9
2017-Nov-30 09:02N 34°39' E 136°52'317.7
2017-Nov-30 08:52N 34°41' E 136°50'616.3
2017-Nov-30 08:30N 34°46' E 136°46'816.0
2017-Nov-30 08:00N 34°54' E 136°46'714.9
2017-Nov-30 07:30N 35°01' E 136°50'2 4.4
2017-Nov-30 07:00N 35°03' E 136°50'0 0.0
2017-Nov-30 06:30N 35°03' E 136°50'0 0.0
2017-Nov-30 06:00N 35°03' E 136°50'0 0.0
2017-Nov-30 05:30N 35°03' E 136°50'0 0.0
2017-Nov-30 05:00N 35°03' E 136°50'0 0.0
2017-Nov-30 04:30N 35°03' E 136°50'0 0.0
2017-Nov-30 04:00N 35°03' E 136°50'0 0.0
2017-Nov-30 03:30N 35°03' E 136°50'0 0.0
2017-Nov-30 03:00N 35°03' E 136°50'0 0.0
2017-Nov-30 02:30N 35°03' E 136°50'0 0.0
2017-Nov-30 02:00N 35°03' E 136°50'0 0.0
2017-Nov-30 01:30N 35°03' E 136°50'0 0.0
2017-Nov-30 01:00N 35°03' E 136°50'0 0.0
2017-Nov-30 00:30N 35°03' E 136°50'0 0.0
2017-Nov-30 00:01N 35°03' E 136°50'3 5.4
2017-Nov-29 23:30N 35°00' E 136°50'713.6
2017-Nov-29 23:01N 34°54' E 136°46'815.8
2017-Nov-29 22:30N 34°46' E 136°49'815.2
2017-Nov-29 22:00N 34°40' E 136°54'714.1
2017-Nov-29 21:30N 34°34' E 136°59'711.4
2017-Nov-29 20:54N 34°29' E 137°04'4 8.8
2017-Nov-29 20:29N 34°25' E 137°03'10811.0
2017-Nov-29 10:43N 33°53' E 134°59'416.8
2017-Nov-29 10:30N 33°56' E 134°59'816.2
2017-Nov-29 10:00N 34°04' E 134°58'816.0
2017-Nov-29 09:30N 34°12' E 134°58'611.6
2017-Nov-29 09:00N 34°18' E 134°59'815.3
2017-Nov-29 08:30N 34°24' E 135°04'816.0
2017-Nov-29 08:01N 34°29' E 135°12'815.9
2017-Nov-29 07:31N 34°32' E 135°20'3 6.2
2017-Nov-29 07:00N 34°32' E 135°24'0 0.0
2017-Nov-29 06:29N 34°32' E 135°24'0 0.0
2017-Nov-29 05:59N 34°32' E 135°24'0 0.0
2017-Nov-29 05:29N 34°32' E 135°24'0 0.0
2017-Nov-29 04:59N 34°32' E 135°24'0 0.0
2017-Nov-29 04:29N 34°32' E 135°24'0 0.0
2017-Nov-29 03:59N 34°32' E 135°24'0 0.0
2017-Nov-29 03:29N 34°32' E 135°24'0 0.0
2017-Nov-29 02:59N 34°32' E 135°24'0 0.0
2017-Nov-29 02:29N 34°32' E 135°24'0 0.0
2017-Nov-29 01:59N 34°32' E 135°24'0 0.0
2017-Nov-29 01:29N 34°32' E 135°24'0 0.0
2017-Nov-29 00:59N 34°32' E 135°24'0 0.0
2017-Nov-29 00:29N 34°32' E 135°24'0 0.0
2017-Nov-28 23:59N 34°32' E 135°24'0 0.0
2017-Nov-28 23:29N 34°32' E 135°24'0 0.0
2017-Nov-28 22:59N 34°32' E 135°24'0 0.2
2017-Nov-28 22:30N 34°32' E 135°24'2 4.9
2017-Nov-28 22:01N 34°32' E 135°21'1 1.1
2017-Nov-28 21:28N 34°32' E 135°21'0 0.0
2017-Nov-28 20:58N 34°32' E 135°21'0 0.0
2017-Nov-28 20:28N 34°32' E 135°21'0 0.0
2017-Nov-28 19:58N 34°32' E 135°21'0 0.0
2017-Nov-28 19:28N 34°32' E 135°21'0 0.0
2017-Nov-28 18:58N 34°32' E 135°21'0 0.0
2017-Nov-28 18:28N 34°32' E 135°21'0 0.0
2017-Nov-28 17:58N 34°32' E 135°21'0 0.0
2017-Nov-28 17:28N 34°32' E 135°21'0 0.0
2017-Nov-28 16:58N 34°32' E 135°21'0 0.0
2017-Nov-28 16:28N 34°32' E 135°21'0 0.0
2017-Nov-28 15:58N 34°32' E 135°21'0 0.0
2017-Nov-28 14:58N 34°32' E 135°21'0 0.0
2017-Nov-28 14:28N 34°32' E 135°21'0 0.0
2017-Nov-28 13:58N 34°32' E 135°21'0 0.0
2017-Nov-28 13:28N 34°32' E 135°21'0 0.0
2017-Nov-28 12:58N 34°32' E 135°21'0 0.0
2017-Nov-28 12:28N 34°32' E 135°21'0 0.0
2017-Nov-28 11:58N 34°32' E 135°21'0 0.0
2017-Nov-28 11:28N 34°32' E 135°21'0 0.1
2017-Nov-28 11:01N 34°32' E 135°21'4 8.9
2017-Nov-28 10:30N 34°30' E 135°16'815.7
2017-Nov-28 10:00N 34°25' E 135°08'815.5
2017-Nov-28 09:30N 34°20' E 135°02'714.7
2017-Nov-28 09:01N 34°13' E 134°59'712.9
2017-Nov-28 08:30N 34°06' E 134°59'815.6
2017-Nov-28 08:00N 33°58' E 134°58'815.9
2017-Nov-28 07:29N 33°50' E 134°56'14910.8
2017-Nov-27 17:35N 33°13' E 132°03'114.6
2017-Nov-27 17:30N 33°14' E 132°02'714.7
2017-Nov-27 17:00N 33°21' E 131°57'714.6
2017-Nov-27 16:30N 33°27' E 131°54'714.8
2017-Nov-27 16:00N 33°34' E 131°50'714.5
2017-Nov-27 15:30N 33°40' E 131°46'713.7
2017-Nov-27 15:00N 33°45' E 131°40'714.7
2017-Nov-27 14:30N 33°47' E 131°32'714.8
2017-Nov-27 14:01N 33°49' E 131°23'815.0
2017-Nov-27 13:30N 33°51' E 131°14'715.0
2017-Nov-27 13:00N 33°54' E 131°07'612.0
2017-Nov-27 12:30N 33°58' E 131°01'510.9
2017-Nov-27 12:01N 33°55' E 130°56'4 8.5
2017-Nov-27 11:30N 33°58' E 130°52'5 9.7
2017-Nov-27 11:00N 34°02' E 130°49'611.5
2017-Nov-27 10:30N 34°03' E 130°42'815.1
2017-Nov-27 10:00N 34°01' E 130°33'815.3
2017-Nov-27 09:30N 33°58' E 130°25'714.7
2017-Nov-27 09:00N 33°53' E 130°18'714.5
2017-Nov-27 08:30N 33°47' E 130°14'714.5
2017-Nov-27 08:00N 33°40' E 130°17'510.3
2017-Nov-27 07:30N 33°39' E 130°23'1 2.9
2017-Nov-27 07:00N 33°40' E 130°24'0 0.0
2017-Nov-27 06:30N 33°40' E 130°24'0 0.0
2017-Nov-27 06:00N 33°40' E 130°24'0 0.0
2017-Nov-27 05:30N 33°40' E 130°24'0 0.0
2017-Nov-27 05:00N 33°40' E 130°24'0 0.0
2017-Nov-27 04:30N 33°40' E 130°24'0 0.0
2017-Nov-27 04:00N 33°40' E 130°24'0 0.0
2017-Nov-27 03:30N 33°40' E 130°24'0 0.0
2017-Nov-27 03:00N 33°40' E 130°24'0 0.0
2017-Nov-27 02:30N 33°40' E 130°24'0 0.0
2017-Nov-27 02:00N 33°40' E 130°24'0 0.0
2017-Nov-27 01:30N 33°40' E 130°24'0 0.0
2017-Nov-27 01:00N 33°40' E 130°24'0 0.0
2017-Nov-27 00:30N 33°40' E 130°24'0 0.0
2017-Nov-27 00:00N 33°40' E 130°24'0 0.0
2017-Nov-26 23:30N 33°40' E 130°24'0 0.0
2017-Nov-26 23:00N 33°40' E 130°24'0 0.0
2017-Nov-26 22:30N 33°40' E 130°24'0 0.0
2017-Nov-26 22:00N 33°40' E 130°24'0 0.5
2017-Nov-26 21:31N 33°39' E 130°24'4 7.3
2017-Nov-26 21:00N 33°38' E 130°20'4 7.9
2017-Nov-26 20:30N 33°40' E 130°16'510.8
2017-Nov-26 20:01N 33°45' E 130°13'714.9
2017-Nov-26 19:30N 33°43' E 130°04'815.1
2017-Nov-26 19:00N 33°42' E 129°55'  
Track history (hours):
 
Tides and Currents Weather Stations Pressure Air Temp Water Temp Dewpoint Dewpoint Depression Visibility Wind Speed Wind Dir Waves Ship Positions

Glovis Prime

Last reported at 2017-Dec-01 16:39 UTC. Time now 2017-Dec-13 22:35 UTC.
Position N 33°57' E 138°06'.
Warning: this ship's position is 12 days out of date.

Length 184 m; draft 8.1 m.

Type: Cargo ship. MMSI: 440062000.

Date/timePositionNaut miles runAvg speedWind from/ knotsBaromVisibWave heightAir tempDewpointWater temp
2017-Dec-01 16:39N 33°57' E 138°06'614.9
2017-Dec-01 16:15N 34°00' E 138°12'615.0
2017-Dec-01 15:50N 34°04' E 138°18'614.7
2017-Dec-01 15:25N 34°08' E 138°24'1214.5
2017-Dec-01 14:37N 34°15' E 138°34'213.9
2017-Dec-01 14:30N 34°16' E 138°36'713.8
2017-Dec-01 14:00N 34°20' E 138°43'813.3
2017-Dec-01 13:26N 34°24' E 138°51'613.3
2017-Dec-01 13:00N 34°28' E 138°56'713.4
2017-Dec-01 12:30N 34°32' E 139°02'713.7
2017-Dec-01 12:00N 34°37' E 139°08'713.4
2017-Dec-01 11:27N 34°43' E 139°13'614.2
2017-Dec-01 11:00N 34°48' E 139°18'814.4
2017-Dec-01 10:29N 34°54' E 139°23'714.1
2017-Dec-01 10:01N 34°58' E 139°29'714.5
2017-Dec-01 09:30N 35°03' E 139°36'815.3
2017-Dec-01 09:00N 35°08' E 139°44'612.0
2017-Dec-01 08:31N 35°13' E 139°46'713.0
2017-Dec-01 08:00N 35°19' E 139°43'612.4
2017-Dec-01 07:30N 35°25' E 139°44'5 9.9
2017-Dec-01 07:00N 35°30' E 139°46'0 0.2
2017-Dec-01 06:28N 35°30' E 139°47'0 0.0
2017-Dec-01 05:58N 35°30' E 139°47'0 0.0
2017-Dec-01 05:28N 35°30' E 139°47'0 0.0
2017-Dec-01 04:58N 35°30' E 139°47'0 0.0
2017-Dec-01 04:28N 35°30' E 139°47'0 0.0
2017-Dec-01 03:58N 35°30' E 139°47'0 0.0
2017-Dec-01 03:28N 35°30' E 139°47'0 0.0
2017-Dec-01 02:58N 35°30' E 139°47'0 0.0
2017-Dec-01 02:28N 35°30' E 139°47'0 0.0
2017-Dec-01 01:58N 35°30' E 139°47'0 0.0
2017-Dec-01 01:28N 35°30' E 139°47'0 0.0
2017-Dec-01 00:58N 35°30' E 139°47'0 0.0
2017-Dec-01 00:25N 35°30' E 139°47'0 0.0
2017-Nov-30 23:58N 35°30' E 139°47'0 0.0
2017-Nov-30 23:28N 35°30' E 139°47'0 0.0
2017-Nov-30 22:58N 35°30' E 139°47'1 1.2
2017-Nov-30 22:30N 35°30' E 139°47'5 9.2
2017-Nov-30 22:00N 35°25' E 139°47'612.7
2017-Nov-30 21:31N 35°19' E 139°44'611.8
2017-Nov-30 21:00N 35°14' E 139°47'510.8
2017-Nov-30 20:30N 35°08' E 139°46'611.4
2017-Nov-30 20:00N 35°03' E 139°43'713.9
2017-Nov-30 19:31N 35°02' E 139°35'611.7
2017-Nov-30 19:01N 34°59' E 139°29'816.5
2017-Nov-30 18:30N 34°53' E 139°23'815.3
2017-Nov-30 18:00N 34°47' E 139°16'915.9
2017-Nov-30 17:27N 34°40' E 139°10'815.8
2017-Nov-30 16:59N 34°34' E 139°04'715.1
2017-Nov-30 16:31N 34°30' E 138°58'915.7
2017-Nov-30 15:57N 34°27' E 138°47'715.6
2017-Nov-30 15:29N 34°25' E 138°39'815.1
2017-Nov-30 14:57N 34°23' E 138°29'715.1
2017-Nov-30 14:27N 34°22' E 138°21'715.0
2017-Nov-30 14:00N 34°21' E 138°13'815.0
2017-Nov-30 13:29N 34°20' E 138°03'714.6
2017-Nov-30 12:59N 34°19' E 137°54'5513.9
2017-Nov-30 09:02N 34°39' E 136°52'317.7
2017-Nov-30 08:52N 34°41' E 136°50'616.3
2017-Nov-30 08:30N 34°46' E 136°46'816.0
2017-Nov-30 08:00N 34°54' E 136°46'714.9
2017-Nov-30 07:30N 35°01' E 136°50'2 4.4
2017-Nov-30 07:00N 35°03' E 136°50'0 0.0
2017-Nov-30 06:30N 35°03' E 136°50'0 0.0
2017-Nov-30 06:00N 35°03' E 136°50'0 0.0
2017-Nov-30 05:30N 35°03' E 136°50'0 0.0
2017-Nov-30 05:00N 35°03' E 136°50'0 0.0
2017-Nov-30 04:30N 35°03' E 136°50'0 0.0
2017-Nov-30 04:00N 35°03' E 136°50'0 0.0
2017-Nov-30 03:30N 35°03' E 136°50'0 0.0
2017-Nov-30 03:00N 35°03' E 136°50'0 0.0
2017-Nov-30 02:30N 35°03' E 136°50'0 0.0
2017-Nov-30 02:00N 35°03' E 136°50'0 0.0
2017-Nov-30 01:30N 35°03' E 136°50'0 0.0
2017-Nov-30 01:00N 35°03' E 136°50'0 0.0
2017-Nov-30 00:30N 35°03' E 136°50'0 0.0
2017-Nov-30 00:01N 35°03' E 136°50'3 5.4
2017-Nov-29 23:30N 35°00' E 136°50'713.6
2017-Nov-29 23:01N 34°54' E 136°46'815.8
2017-Nov-29 22:30N 34°46' E 136°49'815.2
2017-Nov-29 22:00N 34°40' E 136°54'714.1
2017-Nov-29 21:30N 34°34' E 136°59'711.4
2017-Nov-29 20:54N 34°29' E 137°04'4 8.8
2017-Nov-29 20:29N 34°25' E 137°03'10811.0
2017-Nov-29 10:43N 33°53' E 134°59'416.8
2017-Nov-29 10:30N 33°56' E 134°59'816.2
2017-Nov-29 10:00N 34°04' E 134°58'816.0
2017-Nov-29 09:30N 34°12' E 134°58'611.6
2017-Nov-29 09:00N 34°18' E 134°59'815.3
2017-Nov-29 08:30N 34°24' E 135°04'816.0
2017-Nov-29 08:01N 34°29' E 135°12'815.9
2017-Nov-29 07:31N 34°32' E 135°20'3 6.2
2017-Nov-29 07:00N 34°32' E 135°24'0 0.0
2017-Nov-29 06:29N 34°32' E 135°24'0 0.0
2017-Nov-29 05:59N 34°32' E 135°24'0 0.0
2017-Nov-29 05:29N 34°32' E 135°24'0 0.0
2017-Nov-29 04:59N 34°32' E 135°24'0 0.0
2017-Nov-29 04:29N 34°32' E 135°24'0 0.0
2017-Nov-29 03:59N 34°32' E 135°24'0 0.0
2017-Nov-29 03:29N 34°32' E 135°24'0 0.0
2017-Nov-29 02:59N 34°32' E 135°24'0 0.0
2017-Nov-29 02:29N 34°32' E 135°24'0 0.0
2017-Nov-29 01:59N 34°32' E 135°24'0 0.0
2017-Nov-29 01:29N 34°32' E 135°24'0 0.0
2017-Nov-29 00:59N 34°32' E 135°24'0 0.0
2017-Nov-29 00:29N 34°32' E 135°24'0 0.0
2017-Nov-28 23:59N 34°32' E 135°24'0 0.0
2017-Nov-28 23:29N 34°32' E 135°24'0 0.0
2017-Nov-28 22:59N 34°32' E 135°24'0 0.2
2017-Nov-28 22:30N 34°32' E 135°24'2 4.9
2017-Nov-28 22:01N 34°32' E 135°21'1 1.1
2017-Nov-28 21:28N 34°32' E 135°21'0 0.0
2017-Nov-28 20:58N 34°32' E 135°21'0 0.0
2017-Nov-28 20:28N 34°32' E 135°21'0 0.0
2017-Nov-28 19:58N 34°32' E 135°21'0 0.0
2017-Nov-28 19:28N 34°32' E 135°21'0 0.0
2017-Nov-28 18:58N 34°32' E 135°21'0 0.0
2017-Nov-28 18:28N 34°32' E 135°21'0 0.0
2017-Nov-28 17:58N 34°32' E 135°21'0 0.0
2017-Nov-28 17:28N 34°32' E 135°21'0 0.0
2017-Nov-28 16:58N 34°32' E 135°21'0 0.0
2017-Nov-28 16:28N 34°32' E 135°21'0 0.0
2017-Nov-28 15:58N 34°32' E 135°21'0 0.0
2017-Nov-28 14:58N 34°32' E 135°21'0 0.0
2017-Nov-28 14:28N 34°32' E 135°21'0 0.0
2017-Nov-28 13:58N 34°32' E 135°21'0 0.0
2017-Nov-28 13:28N 34°32' E 135°21'0 0.0
2017-Nov-28 12:58N 34°32' E 135°21'0 0.0
2017-Nov-28 12:28N 34°32' E 135°21'0 0.0
2017-Nov-28 11:58N 34°32' E 135°21'0 0.0
2017-Nov-28 11:28N 34°32' E 135°21'0 0.1
2017-Nov-28 11:01N 34°32' E 135°21'4 8.9
2017-Nov-28 10:30N 34°30' E 135°16'815.7
2017-Nov-28 10:00N 34°25' E 135°08'815.5
2017-Nov-28 09:30N 34°20' E 135°02'714.7
2017-Nov-28 09:01N 34°13' E 134°59'712.9
2017-Nov-28 08:30N 34°06' E 134°59'815.6
2017-Nov-28 08:00N 33°58' E 134°58'815.9
2017-Nov-28 07:29N 33°50' E 134°56'14910.8
2017-Nov-27 17:35N 33°13' E 132°03'114.6
2017-Nov-27 17:30N 33°14' E 132°02'714.7
2017-Nov-27 17:00N 33°21' E 131°57'714.6
2017-Nov-27 16:30N 33°27' E 131°54'714.8
2017-Nov-27 16:00N 33°34' E 131°50'714.5
2017-Nov-27 15:30N 33°40' E 131°46'713.7
2017-Nov-27 15:00N 33°45' E 131°40'714.7
2017-Nov-27 14:30N 33°47' E 131°32'714.8
2017-Nov-27 14:01N 33°49' E 131°23'815.0
2017-Nov-27 13:30N 33°51' E 131°14'715.0
2017-Nov-27 13:00N 33°54' E 131°07'612.0
2017-Nov-27 12:30N 33°58' E 131°01'510.9
2017-Nov-27 12:01N 33°55' E 130°56'4 8.5
2017-Nov-27 11:30N 33°58' E 130°52'5 9.7
2017-Nov-27 11:00N 34°02' E 130°49'611.5
2017-Nov-27 10:30N 34°03' E 130°42'815.1
2017-Nov-27 10:00N 34°01' E 130°33'815.3
2017-Nov-27 09:30N 33°58' E 130°25'714.7
2017-Nov-27 09:00N 33°53' E 130°18'714.5
2017-Nov-27 08:30N 33°47' E 130°14'714.5
2017-Nov-27 08:00N 33°40' E 130°17'510.3
2017-Nov-27 07:30N 33°39' E 130°23'1 2.9
2017-Nov-27 07:00N 33°40' E 130°24'0 0.0
2017-Nov-27 06:30N 33°40' E 130°24'0 0.0
2017-Nov-27 06:00N 33°40' E 130°24'0 0.0
2017-Nov-27 05:30N 33°40' E 130°24'0 0.0
2017-Nov-27 05:00N 33°40' E 130°24'0 0.0
2017-Nov-27 04:30N 33°40' E 130°24'0 0.0
2017-Nov-27 04:00N 33°40' E 130°24'0 0.0
2017-Nov-27 03:30N 33°40' E 130°24'0 0.0
2017-Nov-27 03:00N 33°40' E 130°24'0 0.0
2017-Nov-27 02:30N 33°40' E 130°24'0 0.0
2017-Nov-27 02:00N 33°40' E 130°24'0 0.0
2017-Nov-27 01:30N 33°40' E 130°24'0 0.0
2017-Nov-27 01:00N 33°40' E 130°24'0 0.0
2017-Nov-27 00:30N 33°40' E 130°24'0 0.0
2017-Nov-27 00:00N 33°40' E 130°24'0 0.0
2017-Nov-26 23:30N 33°40' E 130°24'0 0.0
2017-Nov-26 23:00N 33°40' E 130°24'0 0.0
2017-Nov-26 22:30N 33°40' E 130°24'0 0.0
2017-Nov-26 22:00N 33°40' E 130°24'0 0.5
2017-Nov-26 21:31N 33°39' E 130°24'4 7.3
2017-Nov-26 21:00N 33°38' E 130°20'4 7.9
2017-Nov-26 20:30N 33°40' E 130°16'510.8
2017-Nov-26 20:01N 33°45' E 130°13'714.9
2017-Nov-26 19:30N 33°43' E 130°04'815.1
2017-Nov-26 19:00N 33°42' E 129°55'  

Dump ship's entire track history